createdAt,value
2018-02-18T00:01:45.857Z,25.10
2018-02-18T00:04:13.582Z,33.95
2018-02-18T00:06:41.310Z,26.77
2018-02-18T00:09:09.795Z,33.72
2018-02-18T00:11:38.286Z,25.23
2018-02-18T00:14:09.686Z,37.47
2018-02-18T00:16:37.456Z,26.30
2018-02-18T00:19:05.182Z,20.58
2018-02-18T00:21:32.915Z,21.35
2018-02-18T00:24:01.398Z,22.37
2018-02-18T00:26:29.895Z,34.95
2018-02-18T00:28:57.621Z,24.17
2018-02-18T00:31:25.358Z,26.65
2018-02-18T00:33:53.859Z,29.08
2018-02-18T00:36:21.598Z,36.25
2018-02-18T00:38:49.327Z,25.08
2018-02-18T00:41:17.062Z,33.13
2018-02-18T00:43:44.798Z,24.27
2018-02-18T00:46:12.526Z,26.15
2018-02-18T00:48:40.254Z,32.03
2018-02-18T00:51:07.985Z,30.80
2018-02-18T00:53:35.707Z,28.70
2018-02-18T00:56:04.218Z,23.08
2018-02-18T00:58:31.942Z,28.60
2018-02-18T01:01:00.435Z,28.08
2018-02-18T01:03:28.936Z,29.15
2018-02-18T01:05:56.666Z,39.72
2018-02-18T01:08:24.396Z,25.00
2018-02-18T01:10:52.142Z,29.45
2018-02-18T01:13:19.875Z,24.42
2018-02-18T01:15:48.365Z,30.30
2018-02-18T01:18:16.098Z,27.58
2018-02-18T01:20:43.834Z,26.52
2018-02-18T01:23:11.555Z,32.95
2018-02-18T01:25:39.340Z,30.98
2018-02-18T01:28:07.065Z,28.75
2018-02-18T01:30:34.793Z,31.87
2018-02-18T01:33:02.549Z,36.00
2018-02-18T01:35:30.291Z,31.02
2018-02-18T01:37:58.012Z,27.42
2018-02-18T01:40:25.741Z,28.42
2018-02-18T01:42:53.463Z,25.25
2018-02-18T01:45:21.958Z,29.92
2018-02-18T01:47:49.686Z,22.05
2018-02-18T01:50:29.257Z,22.75
2018-02-18T01:52:57.744Z,27.25
2018-02-18T01:55:25.475Z,19.10
2018-02-18T01:57:53.238Z,25.65
2018-02-18T02:00:20.974Z,22.55
2018-02-18T02:02:48.707Z,25.75
2018-02-18T02:05:16.425Z,29.77
2018-02-18T02:07:44.162Z,28.87
2018-02-18T02:10:11.890Z,25.37
2018-02-18T02:12:39.617Z,26.20
2018-02-18T02:15:07.576Z,31.08
2018-02-18T02:17:35.305Z,21.67
2018-02-18T02:20:03.082Z,24.80
2018-02-18T02:22:30.801Z,24.52
2018-02-18T02:24:59.286Z,22.75
2018-02-18T02:27:27.770Z,21.75
2018-02-18T02:29:56.248Z,27.65
2018-02-18T02:32:24.747Z,30.27
2018-02-18T02:34:52.533Z,29.87
2018-02-18T02:37:20.297Z,24.40
2018-02-18T02:39:48.031Z,24.75
2018-02-18T02:42:16.674Z,33.33
2018-02-18T02:44:44.540Z,28.85
2018-02-18T02:47:12.409Z,26.62
2018-02-18T02:49:40.287Z,20.33
2018-02-18T02:52:08.025Z,30.60
2018-02-18T02:54:35.755Z,29.25
2018-02-18T02:57:03.537Z,22.83
2018-02-18T02:59:31.282Z,29.90
2018-02-18T03:01:59.774Z,24.65
2018-02-18T03:04:27.518Z,23.05
2018-02-18T03:06:56.026Z,25.95
2018-02-18T03:09:23.767Z,32.72
2018-02-18T03:11:52.271Z,24.17
2018-02-18T03:14:20.010Z,23.08
2018-02-18T03:16:48.508Z,33.17
2018-02-18T03:19:16.246Z,22.98
2018-02-18T03:21:44.129Z,35.65
2018-02-18T03:24:12.623Z,25.62
2018-02-18T03:26:40.435Z,23.90
2018-02-18T03:29:08.301Z,26.87
2018-02-18T03:31:36.174Z,29.15
2018-02-18T03:34:04.037Z,26.60
2018-02-18T03:36:31.906Z,26.87
2018-02-18T03:38:59.771Z,25.17
2018-02-18T03:41:27.642Z,24.00
2018-02-18T03:43:55.506Z,26.17
2018-02-18T03:46:23.225Z,22.17
2018-02-18T03:48:50.966Z,24.02
2018-02-18T03:51:19.523Z,20.20
2018-02-18T03:53:47.385Z,26.92
2018-02-18T03:56:15.110Z,21.23
2018-02-18T03:58:42.842Z,25.12
2018-02-18T04:01:10.558Z,23.52
2018-02-18T04:03:38.444Z,24.00
2018-02-18T04:06:06.310Z,30.75
2018-02-18T04:08:34.178Z,24.15
2018-02-18T04:11:02.047Z,22.90
2018-02-18T04:13:29.913Z,28.62
2018-02-18T04:15:57.678Z,22.83
2018-02-18T04:18:25.546Z,27.13
2018-02-18T04:20:53.276Z,26.58
2018-02-18T04:23:21.074Z,22.37
2018-02-18T04:25:48.942Z,26.20
2018-02-18T04:28:16.680Z,29.08
2018-02-18T04:30:44.474Z,28.23
2018-02-18T04:33:12.222Z,29.92
2018-02-18T04:35:40.104Z,32.30
2018-02-18T04:38:07.834Z,25.65
2018-02-18T04:40:35.561Z,31.60
2018-02-18T04:43:04.218Z,39.50
2018-02-18T04:45:32.086Z,30.30
2018-02-18T04:47:59.809Z,25.92
2018-02-18T04:50:27.615Z,32.85
2018-02-18T04:52:55.483Z,37.70
2018-02-18T04:55:23.355Z,39.85
2018-02-18T04:57:51.217Z,34.13
2018-02-18T05:00:18.946Z,27.98
2018-02-18T05:02:46.670Z,30.67
2018-02-18T05:05:14.394Z,26.52
2018-02-18T05:07:42.117Z,32.83
2018-02-18T05:10:10.759Z,25.55
2018-02-18T05:12:38.485Z,26.23
2018-02-18T05:15:06.210Z,23.95
2018-02-18T05:17:33.939Z,26.00
2018-02-18T05:20:01.697Z,25.58
2018-02-18T05:22:29.462Z,34.05
2018-02-18T05:24:57.347Z,22.17
2018-02-18T05:27:25.215Z,38.22
2018-02-18T05:29:53.082Z,27.58
2018-02-18T05:32:20.949Z,30.27
2018-02-18T05:34:48.682Z,23.73
2018-02-18T05:37:16.410Z,24.52
2018-02-18T05:39:45.063Z,32.55
2018-02-18T05:42:12.933Z,22.45
2018-02-18T05:44:40.798Z,22.70
2018-02-18T05:47:08.669Z,30.88
2018-02-18T05:49:36.532Z,26.17
2018-02-18T05:52:04.403Z,22.80
2018-02-18T05:54:32.130Z,26.45
2018-02-18T05:56:59.862Z,24.90
2018-02-18T05:59:28.351Z,24.70
2018-02-18T06:01:56.846Z,23.60
2018-02-18T06:04:24.760Z,24.67
2018-02-18T06:06:52.499Z,21.65
2018-02-18T06:09:20.290Z,29.87
2018-02-18T06:11:48.031Z,23.90
2018-02-18T06:14:15.759Z,32.25
2018-02-18T06:16:44.405Z,29.48
2018-02-18T06:19:12.270Z,29.40
2018-02-18T06:21:39.994Z,32.25
2018-02-18T06:24:07.734Z,27.55
2018-02-18T06:26:37.551Z,38.60
2018-02-18T06:29:08.583Z,49.35
2018-02-18T06:31:38.746Z,46.13
2018-02-18T06:34:08.764Z,50.67
2018-02-18T06:36:38.888Z,51.72
2018-02-18T06:39:06.687Z,67.28
2018-02-18T06:41:34.410Z,62.75
2018-02-18T06:44:04.565Z,67.28
2018-02-18T06:46:34.558Z,81.65
2018-02-18T06:49:08.736Z,67.60
2018-02-18T06:51:40.144Z,55.97
2018-02-18T06:54:10.289Z,58.38
2018-02-18T06:56:40.412Z,54.45
2018-02-18T06:59:09.560Z,53.45
2018-02-18T07:01:38.460Z,59.88
2018-02-18T07:04:06.344Z,60.53
2018-02-18T07:06:34.108Z,68.22
2018-02-18T07:09:01.975Z,65.47
2018-02-18T07:11:30.969Z,59.45
2018-02-18T07:13:58.801Z,58.03
2018-02-18T07:16:26.640Z,56.72
2018-02-18T07:18:55.135Z,56.10
2018-02-18T07:21:22.862Z,55.72
2018-02-18T07:23:50.615Z,64.62
2018-02-18T07:26:18.373Z,62.45
2018-02-18T07:28:46.107Z,72.20
2018-02-18T07:31:13.825Z,72.45
2018-02-18T07:33:41.604Z,60.08
2018-02-18T07:36:10.085Z,71.87
2018-02-18T07:38:39.943Z,60.22
2018-02-18T07:41:07.670Z,58.55
2018-02-18T07:43:36.179Z,62.25
2018-02-18T07:46:03.927Z,60.65
2018-02-18T07:48:31.654Z,53.53
2018-02-18T07:50:59.381Z,67.22
2018-02-18T07:53:27.098Z,56.80
2018-02-18T07:55:55.587Z,47.22
2018-02-18T07:58:24.085Z,57.33
2018-02-18T08:00:51.806Z,53.40
2018-02-18T08:03:19.541Z,61.85
2018-02-18T08:05:47.266Z,52.13
2018-02-18T08:08:15.754Z,48.83
2018-02-18T08:10:44.244Z,48.38
2018-02-18T08:13:11.963Z,49.63
2018-02-18T08:15:39.710Z,47.30
2018-02-18T08:18:07.427Z,48.47
2018-02-18T08:20:35.905Z,49.25
2018-02-18T08:23:04.393Z,55.12
2018-02-18T08:25:32.875Z,51.90
2018-02-18T08:28:01.358Z,45.65
2018-02-18T08:30:29.073Z,51.37
2018-02-18T08:32:56.794Z,49.30
2018-02-18T08:35:24.530Z,50.72
2018-02-18T08:37:53.042Z,49.42
2018-02-18T08:40:20.766Z,52.65
2018-02-18T08:42:48.619Z,42.40
2018-02-18T08:45:16.484Z,43.90
2018-02-18T08:47:44.348Z,43.42
2018-02-18T08:50:12.248Z,46.80
2018-02-18T08:52:40.747Z,39.30
2018-02-18T08:55:08.491Z,41.97
2018-02-18T08:57:36.260Z,45.83
2018-02-18T09:00:04.766Z,46.40
2018-02-18T09:02:32.499Z,44.08
2018-02-18T09:05:00.217Z,46.25
2018-02-18T09:07:27.950Z,42.55
2018-02-18T09:09:56.442Z,41.08
2018-02-18T09:12:24.163Z,43.63
2018-02-18T09:14:51.882Z,45.42
2018-02-18T09:17:19.605Z,39.47
2018-02-18T09:19:48.108Z,45.65
2018-02-18T09:22:15.843Z,47.80
2018-02-18T09:24:43.566Z,43.20
2018-02-18T09:27:11.315Z,45.03
2018-02-18T09:29:39.045Z,46.67
2018-02-18T09:32:07.548Z,42.92
2018-02-18T09:34:35.274Z,51.35
2018-02-18T09:37:03.005Z,44.05
2018-02-18T09:39:30.747Z,43.15
2018-02-18T09:41:58.469Z,43.38
2018-02-18T09:44:26.209Z,42.28
2018-02-18T09:46:53.938Z,44.28
2018-02-18T09:49:21.670Z,38.88
2018-02-18T09:51:49.394Z,44.65
2018-02-18T09:54:17.106Z,40.35
2018-02-18T09:56:45.599Z,45.30
2018-02-18T09:59:14.098Z,40.25
2018-02-18T10:01:41.822Z,40.40
2018-02-18T10:04:09.550Z,41.75
2018-02-18T10:06:37.278Z,39.33
2018-02-18T10:09:05.783Z,38.60
2018-02-18T10:11:33.517Z,40.47
2018-02-18T10:14:02.002Z,41.95
2018-02-18T10:16:30.513Z,41.70
2018-02-18T10:18:58.240Z,40.88
2018-02-18T10:21:26.731Z,34.83
2018-02-18T10:23:55.227Z,36.78
2018-02-18T10:26:22.987Z,38.28
2018-02-18T10:28:50.706Z,41.08
2018-02-18T10:31:18.450Z,41.67
2018-02-18T10:33:46.185Z,38.15
2018-02-18T10:36:13.932Z,40.75
2018-02-18T10:38:41.683Z,41.55
2018-02-18T10:41:09.461Z,34.28
2018-02-18T10:43:37.945Z,36.95
2018-02-18T10:46:06.444Z,38.17
2018-02-18T10:48:34.163Z,33.50
2018-02-18T10:51:01.934Z,38.10
2018-02-18T10:53:29.656Z,38.13
2018-02-18T10:55:57.385Z,38.67
2018-02-18T10:58:25.899Z,42.75
2018-02-18T11:00:53.633Z,37.58
2018-02-18T11:03:22.132Z,35.65
2018-02-18T11:05:49.874Z,42.45
2018-02-18T11:08:18.358Z,38.53
2018-02-18T11:10:46.849Z,45.92
2018-02-18T11:13:14.566Z,40.05
2018-02-18T11:15:42.298Z,39.50
2018-02-18T11:18:10.026Z,40.17
2018-02-18T11:20:37.757Z,42.50
2018-02-18T11:23:05.495Z,32.97
2018-02-18T11:25:33.231Z,32.17
2018-02-18T11:28:01.746Z,35.08
2018-02-18T11:30:29.469Z,36.63
2018-02-18T11:32:57.966Z,33.40
2018-02-18T11:35:25.703Z,34.72
2018-02-18T11:37:53.442Z,38.15
2018-02-18T11:40:21.183Z,35.88
2018-02-18T11:42:48.898Z,36.55
2018-02-18T11:45:18.266Z,32.15
2018-02-18T11:47:46.114Z,35.13
2018-02-18T11:50:13.855Z,31.98
2018-02-18T11:52:41.590Z,38.25
2018-02-18T11:55:10.606Z,33.13
2018-02-18T11:57:39.975Z,33.20
2018-02-18T12:00:07.787Z,52.03
2018-02-18T12:02:35.522Z,36.05
2018-02-18T12:05:04.047Z,40.30
2018-02-18T12:07:31.775Z,42.10
2018-02-18T12:10:00.282Z,38.80
2018-02-18T12:12:28.024Z,33.55
2018-02-18T12:14:56.542Z,34.90
2018-02-18T12:17:24.278Z,38.55
2018-02-18T12:19:52.006Z,37.33
2018-02-18T12:22:19.727Z,37.33
2018-02-18T12:24:47.449Z,40.65
2018-02-18T12:27:15.183Z,39.15
2018-02-18T12:29:42.918Z,38.50
2018-02-18T12:32:10.646Z,40.38
2018-02-18T12:34:38.375Z,40.28
2018-02-18T12:37:06.104Z,49.08
2018-02-18T12:39:33.839Z,40.58
2018-02-18T12:42:02.378Z,36.53
2018-02-18T12:44:30.103Z,44.70
2018-02-18T12:46:58.594Z,39.85
2018-02-18T12:49:26.319Z,36.03
2018-02-18T12:51:54.067Z,39.92
2018-02-18T12:54:21.933Z,36.67
2018-02-18T12:56:49.800Z,42.13
2018-02-18T12:59:17.667Z,43.00
2018-02-18T13:01:45.535Z,34.95
2018-02-18T13:04:13.405Z,36.15
2018-02-18T13:06:41.206Z,34.83
2018-02-18T13:09:09.796Z,38.47
2018-02-18T13:11:38.294Z,39.10
2018-02-18T13:14:06.032Z,34.97
2018-02-18T13:16:34.533Z,39.80
2018-02-18T13:19:02.256Z,36.80
2018-02-18T13:21:30.003Z,37.17
2018-02-18T13:23:57.726Z,39.58
2018-02-18T13:28:59.283Z,49.05
2018-02-18T13:31:27.783Z,42.35
2018-02-18T13:33:55.558Z,41.58
2018-02-18T13:36:23.286Z,125.38
2018-02-18T13:38:51.041Z,34.65
2018-02-18T13:41:18.778Z,39.70
2018-02-18T13:43:46.498Z,33.65
2018-02-18T13:46:14.989Z,34.10
2018-02-18T13:48:42.717Z,33.15
2018-02-18T13:51:10.446Z,40.97
2018-02-18T13:53:38.168Z,34.95
2018-02-18T13:56:06.670Z,35.72
2018-02-18T13:58:34.403Z,36.17
2018-02-18T14:01:02.904Z,32.15
2018-02-18T14:03:30.637Z,34.33
2018-02-18T14:05:58.370Z,42.17
2018-02-18T14:08:26.105Z,40.88
2018-02-18T14:10:53.826Z,39.90
2018-02-18T14:13:21.556Z,39.60
2018-02-18T14:15:49.298Z,30.00
2018-02-18T14:18:17.028Z,32.65
2018-02-18T14:20:45.561Z,35.25
2018-02-18T14:23:13.301Z,43.67
2018-02-18T14:25:41.027Z,34.28
2018-02-18T14:28:08.760Z,29.90
2018-02-18T14:30:36.484Z,25.25
2018-02-18T14:33:04.973Z,29.70
2018-02-18T14:35:32.714Z,25.33
2018-02-18T14:38:01.210Z,23.77
2018-02-18T14:40:29.698Z,42.20
2018-02-18T14:43:10.014Z,28.80
2018-02-18T14:45:49.674Z,24.55
2018-02-18T14:48:29.437Z,32.58
2018-02-18T14:51:18.644Z,29.15
2018-02-18T14:53:58.186Z,42.95
2018-02-18T14:56:37.766Z,39.40
2018-02-18T14:59:05.490Z,34.97
2018-02-18T15:01:33.210Z,37.50
2018-02-18T15:04:01.864Z,31.65
2018-02-18T15:06:29.732Z,34.78
2018-02-18T15:08:57.499Z,29.42
2018-02-18T15:11:26.017Z,43.30
2018-02-18T15:13:55.210Z,32.45
2018-02-18T15:16:23.010Z,35.60
2018-02-18T15:18:50.730Z,35.10
2018-02-18T15:21:18.664Z,27.15
2018-02-18T15:23:46.585Z,23.80
2018-02-18T15:26:15.306Z,29.80
2018-02-18T15:28:43.333Z,29.23
2018-02-18T15:31:11.821Z,26.00
2018-02-18T15:33:40.326Z,21.08
2018-02-18T15:36:08.045Z,22.08
2018-02-18T15:38:35.796Z,20.08
2018-02-18T15:41:03.662Z,22.95
2018-02-18T15:43:33.143Z,31.33
2018-02-18T15:46:01.694Z,22.55
2018-02-18T15:48:30.186Z,23.60
2018-02-18T15:50:58.105Z,24.73
2018-02-18T15:53:25.965Z,29.33
2018-02-18T15:55:53.690Z,30.10
2018-02-18T15:58:21.416Z,25.67
2018-02-18T16:00:49.156Z,21.37
2018-02-18T16:03:16.901Z,27.65
2018-02-18T16:05:44.679Z,21.58
2018-02-18T16:08:12.632Z,24.00
2018-02-18T16:10:40.605Z,16.85
2018-02-18T16:13:08.357Z,19.60
2018-02-18T16:15:37.115Z,20.80
2018-02-18T16:18:04.909Z,24.02
2018-02-18T16:20:33.065Z,26.55
2018-02-18T16:23:01.106Z,21.95
2018-02-18T16:25:28.853Z,23.40
2018-02-18T16:30:30.732Z,24.70
2018-02-18T16:32:58.454Z,24.73
2018-02-18T16:35:26.186Z,17.95
2018-02-18T16:37:53.914Z,25.17
2018-02-18T16:40:21.656Z,23.33
2018-02-18T16:42:49.394Z,32.67
2018-02-18T16:45:17.874Z,37.40
2018-02-18T16:47:46.355Z,36.17
2018-02-18T16:50:14.842Z,33.97
2018-02-18T16:52:43.340Z,30.12
2018-02-18T16:55:11.556Z,31.98
2018-02-18T16:57:39.310Z,23.00
2018-02-18T17:00:07.038Z,23.80
2018-02-18T17:02:34.859Z,26.42
2018-02-18T17:05:02.600Z,32.95
2018-02-18T17:07:30.367Z,23.40
2018-02-18T17:09:58.143Z,22.62
2018-02-18T17:12:26.173Z,25.02
2018-02-18T17:14:53.898Z,30.05
2018-02-18T17:17:21.755Z,19.42
2018-02-18T17:19:49.478Z,22.60
2018-02-18T17:22:17.199Z,21.70
2018-02-18T17:24:46.055Z,20.75
2018-02-18T17:27:13.788Z,23.55
2018-02-18T17:29:41.511Z,23.75
2018-02-18T17:32:09.300Z,23.05
2018-02-18T17:34:38.215Z,27.30
2018-02-18T17:37:05.951Z,26.08
2018-02-18T17:39:34.470Z,21.40
2018-02-18T17:42:06.136Z,25.12
2018-02-18T17:44:33.867Z,22.25
2018-02-18T17:47:02.444Z,31.40
2018-02-18T17:49:30.942Z,31.02
2018-02-18T17:51:58.666Z,21.55
2018-02-18T17:54:27.187Z,33.65
2018-02-18T17:56:55.710Z,26.02
2018-02-18T17:59:23.430Z,33.60
2018-02-18T18:01:51.174Z,32.90
2018-02-18T18:04:18.900Z,27.42
2018-02-18T18:06:47.905Z,28.60
2018-02-18T18:09:15.630Z,36.17
2018-02-18T18:11:43.349Z,24.58
2018-02-18T18:14:11.919Z,29.70
2018-02-18T18:16:40.548Z,28.30
2018-02-18T18:19:09.269Z,26.52
2018-02-18T18:21:37.823Z,28.67
2018-02-18T18:24:06.315Z,26.87
2018-02-18T18:26:34.077Z,24.27
2018-02-18T18:29:01.797Z,32.92
2018-02-18T18:31:29.514Z,26.87
2018-02-18T18:33:57.266Z,28.20
2018-02-18T18:36:24.987Z,24.10
2018-02-18T18:38:52.712Z,33.00
2018-02-18T18:41:20.426Z,29.08
2018-02-18T18:43:48.143Z,25.77
2018-02-18T18:46:15.867Z,32.15
2018-02-18T18:48:44.383Z,30.27
2018-02-18T18:51:12.108Z,28.52
2018-02-18T18:53:39.834Z,26.62
2018-02-18T18:56:07.568Z,22.90
2018-02-18T18:58:35.286Z,31.00
2018-02-18T19:01:03.010Z,28.85
2018-02-18T19:03:30.738Z,30.00
2018-02-18T19:05:59.236Z,28.15
2018-02-18T19:08:26.958Z,31.20
2018-02-18T19:10:54.687Z,30.88
2018-02-18T19:13:22.430Z,28.77
2018-02-18T19:15:50.164Z,28.35
2018-02-18T19:18:17.885Z,29.45
2018-02-18T19:20:45.621Z,30.58
2018-02-18T19:23:13.343Z,33.15
2018-02-18T19:25:41.070Z,35.75
2018-02-18T19:28:08.799Z,31.58
2018-02-18T19:30:37.286Z,27.15
2018-02-18T19:33:05.769Z,33.58
2018-02-18T19:35:34.266Z,37.72
2018-02-18T19:38:02.002Z,37.22
2018-02-18T19:40:30.482Z,29.63
2018-02-18T19:42:58.974Z,44.50
2018-02-18T19:45:27.492Z,46.72
2018-02-18T19:47:55.226Z,55.83
2018-02-18T19:50:23.722Z,51.42
2018-02-18T19:52:51.438Z,58.05
2018-02-18T19:55:19.164Z,52.15
2018-02-18T19:57:46.880Z,52.25
2018-02-18T20:00:14.598Z,54.17
2018-02-18T20:02:42.339Z,60.38
2018-02-18T20:05:10.066Z,68.62
2018-02-18T20:07:37.788Z,56.45
2018-02-18T20:10:05.523Z,53.83
2018-02-18T20:12:33.267Z,47.40
2018-02-18T20:15:01.746Z,45.53
2018-02-18T20:17:29.474Z,46.13
2018-02-18T20:19:57.192Z,45.90
2018-02-18T20:22:25.686Z,47.92
2018-02-18T20:24:53.420Z,38.42
2018-02-18T20:27:21.240Z,49.78
2018-02-18T20:29:48.947Z,41.85
2018-02-18T20:32:17.445Z,39.83
2018-02-18T20:34:45.922Z,35.88
2018-02-18T20:37:14.398Z,35.47
2018-02-18T20:39:42.879Z,34.40
2018-02-18T20:42:10.594Z,40.85
2018-02-18T20:44:38.316Z,39.28
2018-02-18T20:47:06.826Z,38.78
2018-02-18T20:49:34.547Z,37.40
2018-02-18T20:52:02.258Z,36.47
2018-02-18T20:54:29.976Z,30.98
2018-02-18T20:56:57.697Z,36.33
2018-02-18T20:59:25.452Z,34.95
2018-02-18T21:01:53.168Z,35.22
2018-02-18T21:04:20.878Z,36.45
2018-02-18T21:06:48.616Z,37.03
2018-02-18T21:09:17.111Z,41.78
2018-02-18T21:11:44.836Z,41.45
2018-02-18T21:14:12.550Z,41.92
2018-02-18T21:16:40.274Z,41.53
2018-02-18T21:19:07.984Z,37.15
2018-02-18T21:21:35.695Z,44.72
2018-02-18T21:24:03.407Z,40.15
2018-02-18T21:26:31.135Z,34.92
2018-02-18T21:28:59.619Z,45.17
2018-02-18T21:31:28.116Z,43.55
2018-02-18T21:33:55.839Z,48.70
2018-02-18T21:36:23.574Z,46.45
2018-02-18T21:38:51.298Z,40.20
2018-02-18T21:43:53.885Z,42.25
2018-02-18T21:46:22.370Z,45.60
2018-02-18T21:48:50.870Z,41.95
2018-02-18T21:51:18.616Z,43.50
2018-02-18T21:53:47.100Z,45.45
2018-02-18T21:56:15.597Z,41.90
2018-02-18T21:58:43.330Z,46.67
2018-02-18T22:01:11.053Z,37.30
2018-02-18T22:03:38.779Z,44.45
2018-02-18T22:06:07.274Z,50.85
2018-02-18T22:08:35.005Z,46.10
2018-02-18T22:11:02.730Z,45.65
2018-02-18T22:13:30.449Z,41.37
2018-02-18T22:15:58.938Z,44.83
2018-02-18T22:18:27.428Z,45.40
2018-02-18T22:20:55.167Z,42.33
2018-02-18T22:23:23.658Z,48.85
2018-02-18T22:25:52.138Z,45.75
2018-02-18T22:28:20.629Z,52.15
2018-02-18T22:30:49.110Z,42.60
2018-02-18T22:33:17.611Z,41.15
2018-02-18T22:35:45.332Z,44.60
2018-02-18T22:38:13.041Z,45.55
2018-02-18T22:40:40.762Z,46.40
2018-02-18T22:43:08.474Z,43.28
2018-02-18T22:45:36.199Z,52.42
2018-02-18T22:48:03.962Z,45.75
2018-02-18T22:50:32.467Z,43.25
2018-02-18T22:53:00.193Z,46.70
2018-02-18T22:55:27.918Z,40.60
2018-02-18T22:57:55.635Z,48.25
2018-02-18T23:00:24.114Z,49.10
2018-02-18T23:02:51.838Z,37.78
2018-02-18T23:05:25.261Z,46.70
2018-02-18T23:07:52.973Z,45.92
2018-02-18T23:10:20.687Z,42.38
2018-02-18T23:12:48.422Z,45.65
2018-02-18T23:15:16.143Z,46.10
2018-02-18T23:17:44.615Z,38.42
2018-02-18T23:20:12.366Z,37.20
2018-02-18T23:22:40.089Z,35.83
2018-02-18T23:25:07.809Z,42.20
2018-02-18T23:27:36.302Z,35.78
2018-02-18T23:30:04.086Z,32.63
2018-02-18T23:32:31.809Z,38.25
2018-02-18T23:34:59.532Z,36.88
2018-02-18T23:37:27.254Z,39.72
2018-02-18T23:39:55.743Z,33.97
2018-02-18T23:42:24.235Z,33.08
2018-02-18T23:44:51.975Z,34.65
2018-02-18T23:47:20.466Z,37.20
2018-02-18T23:49:48.950Z,37.10
2018-02-18T23:52:17.451Z,38.30
2018-02-18T23:54:45.174Z,37.22
2018-02-18T23:57:12.906Z,30.23
2018-02-18T23:59:40.623Z,33.63
